Pagrindinis puslapis
METAR-TAF:

METAR-TAF

Oro uostai :

Basra, Irakas

platuma: 30-32-56N, ilguma: 47-39-45E, Aukštis: 1 m

Dabartinis oras

Ataskaita buvo paskelbta 41 minutes, ne 18:00 UTC
Vėjas 16 kt iš Rytų/Pietryčių
Temperatūra 19°C
Drėgmė 40%
Slėgis 1015 hPa
Matomumas 10 km arba daugiau
nėra debesų žemiau 1500 m ir nėra kamuolinių lietaus debesų

METAR: ORMM 161800Z 11016KT CAVOK 19/05 Q1015 NOSIG

Laikas: 21:41 (18:41 UTC)

Prognozė

Ataskaita buvo paskelbta 2 valandos ir 41 minutes, ne 16:00 UTC
Prognozė galioja nuo 16 metu 18 UTC su 17 metu 18 UTC
Vėjas 6 kt iš Rytų/Pietryčių
Matomumas: 8000 m
Mažai debesys ne aukštis 4000 ft
Išsisklaidę debesys ne aukštis 10000 ft
Laikinai
nuo 16 metu 24 UTC su 17 metu 12 UTC
Matomumas: 5000 m
Mažai debesys ne aukštis 3000 ft, Liūtiniai kamuoliniai debesys.
perkūnija, lietus

TAF: ORMM 161600Z 1618/1718 12006KT 8000 FEW040 SCT100 TEMPO 1624/1712 5000 TSRA FEW030CB

Orai ataskaitas ir orų prognozės (METAR, TAF).

turimą stotys yra geltonos ir raudonos taškus žemėlapyje.

Perkelti pele per norėdami pamatyti stoties vardą.

Tada spustelėkite, norėdami matyti oro stebėjimo ir prognozės.

Norėdami pakeisti žemėlapį: spustelėkite ant žalios mygtukų su juodo kryžiaus žemyn,; žalią mygtuką su brūkšneliu, jei norite nutolinti; arba žalių rodyklių gretimoms žemėlapius.


METAR-TAF: